EDDG/FMO METAR and TAF weather

Enter ICAO airport designator
Station Type Date Time Source
EDDG METAR 2018/01/21 12:20 UTC NOAA

EDDG 211220Z 22004KT 9999 SCT009 BKN028 03/02 Q1015 NOSIG


Station Type Date Time Source
EDDG Decoded METAR 2018/01/21 12:20 UTC NOAA

Muenster / Osnabrueck, Germany (EDDG) 52-08N 007-42E 53M
Jan 21, 2018 - 07:20 AM EST / 2018.01.21 1220 UTC
Wind: from the SW (220 degrees) at 5 MPH (4 KT):0
Visibility: greater than 7 mile(s):0
Sky conditions: mostly cloudy
Temperature: 37 F (3 C)
Dew Point: 35 F (2 C)
Relative Humidity: 93%
Pressure (altimeter): 29.97 in. Hg (1015 hPa)
ob: EDDG 211220Z 22004KT 9999 SCT009 BKN028 03/02 Q1015 NOSIG
cycle: 12

Station Type Date Time Source
EDDG TAF 2018/01/21 12:27 UTC NOAA

TAF EDDG 211100Z 2112/2212 26005KT 9999 BKN009
BECMG 2112/2114 SCT020
BECMG 2116/2119 14005KT
BECMG 2200/2203 BKN012
TEMPO 2201/2209 3500 -RA PROB30
TEMPO 2202/2205 2500 -SNRA BKN008
BECMG 2205/2208 BKN008
BECMG 2210/2212 27007KT


Example: see airport list